sensor_id;sensor_type;location;lat;lon;timestamp;P1;durP1;ratioP1;P2;durP2;ratioP2
12253;SDS011;6189;52.526;13.390;2022-09-27T00:01:42;2.87;;;2.23;;
12253;SDS011;6189;52.526;13.390;2022-09-27T00:04:28;3.37;;;2.00;;
12253;SDS011;6189;52.526;13.390;2022-09-27T00:07:15;3.90;;;2.43;;
12253;SDS011;6189;52.526;13.390;2022-09-27T00:10:00;6.00;;;2.50;;
12253;SDS011;6189;52.526;13.390;2022-09-27T00:12:46;2.77;;;2.00;;
12253;SDS011;6189;52.526;13.390;2022-09-27T00:15:32;4.73;;;2.53;;
12253;SDS011;6189;52.526;13.390;2022-09-27T00:18:17;2.87;;;2.30;;
12253;SDS011;6189;52.526;13.390;2022-09-27T00:21:04;3.30;;;2.30;;
12253;SDS011;6189;52.526;13.390;2022-09-27T00:23:51;3.63;;;2.27;;
12253;SDS011;6189;52.526;13.390;2022-09-27T00:26:37;4.93;;;2.60;;
12253;SDS011;6189;52.526;13.390;2022-09-27T00:29:23;3.33;;;2.20;;
12253;SDS011;6189;52.526;13.390;2022-09-27T00:32:08;3.40;;;2.00;;
12253;SDS011;6189;52.526;13.390;2022-09-27T00:34:54;3.03;;;2.13;;
12253;SDS011;6189;52.526;13.390;2022-09-27T00:37:39;3.33;;;2.30;;
12253;SDS011;6189;52.526;13.390;2022-09-27T00:40:26;3.93;;;1.83;;
12253;SDS011;6189;52.526;13.390;2022-09-27T00:43:14;2.77;;;2.10;;
12253;SDS011;6189;52.526;13.390;2022-09-27T00:46:02;2.77;;;2.07;;
12253;SDS011;6189;52.526;13.390;2022-09-27T00:48:48;3.60;;;2.30;;
12253;SDS011;6189;52.526;13.390;2022-09-27T00:51:42;4.33;;;2.37;;
12253;SDS011;6189;52.526;13.390;2022-09-27T00:54:32;3.50;;;2.30;;
12253;SDS011;6189;52.526;13.390;2022-09-27T00:57:22;3.10;;;2.20;;
12253;SDS011;6189;52.526;13.390;2022-09-27T01:00:09;4.77;;;2.40;;
12253;SDS011;6189;52.526;13.390;2022-09-27T01:02:55;2.10;;;1.70;;
12253;SDS011;6189;52.526;13.390;2022-09-27T01:05:42;3.87;;;2.00;;
12253;SDS011;6189;52.526;13.390;2022-09-27T01:08:27;2.30;;;1.73;;
12253;SDS011;6189;52.526;13.390;2022-09-27T01:11:15;3.47;;;1.87;;
12253;SDS011;6189;52.526;13.390;2022-09-27T01:17:34;2.73;;;2.00;;
12253;SDS011;6189;52.526;13.390;2022-09-27T01:24:09;7.10;;;2.43;;
12253;SDS011;6189;52.526;13.390;2022-09-27T01:27:30;3.00;;;1.83;;
12253;SDS011;6189;52.526;13.390;2022-09-27T01:30:42;4.87;;;2.10;;
12253;SDS011;6189;52.526;13.390;2022-09-27T01:33:34;3.63;;;1.90;;
12253;SDS011;6189;52.526;13.390;2022-09-27T01:36:30;2.93;;;2.07;;
12253;SDS011;6189;52.526;13.390;2022-09-27T01:39:28;3.73;;;2.10;;
12253;SDS011;6189;52.526;13.390;2022-09-27T01:42:21;2.50;;;2.00;;
12253;SDS011;6189;52.526;13.390;2022-09-27T01:45:12;2.33;;;1.70;;
12253;SDS011;6189;52.526;13.390;2022-09-27T01:48:03;4.80;;;2.00;;
12253;SDS011;6189;52.526;13.390;2022-09-27T01:50:54;3.87;;;2.03;;
12253;SDS011;6189;52.526;13.390;2022-09-27T01:53:47;4.27;;;2.13;;
12253;SDS011;6189;52.526;13.390;2022-09-27T01:56:36;3.00;;;2.20;;
12253;SDS011;6189;52.526;13.390;2022-09-27T01:59:25;3.27;;;2.03;;
12253;SDS011;6189;52.526;13.390;2022-09-27T02:02:15;2.37;;;2.07;;
12253;SDS011;6189;52.526;13.390;2022-09-27T02:05:05;2.80;;;1.90;;
12253;SDS011;6189;52.526;13.390;2022-09-27T02:07:54;4.73;;;2.10;;
12253;SDS011;6189;52.526;13.390;2022-09-27T02:10:44;2.53;;;1.87;;
12253;SDS011;6189;52.526;13.390;2022-09-27T02:13:34;1.97;;;1.67;;
12253;SDS011;6189;52.526;13.390;2022-09-27T02:16:27;2.10;;;1.90;;
12253;SDS011;6189;52.526;13.390;2022-09-27T02:19:20;4.10;;;2.27;;
12253;SDS011;6189;52.526;13.390;2022-09-27T02:22:16;4.33;;;2.33;;
12253;SDS011;6189;52.526;13.390;2022-09-27T02:25:10;2.67;;;1.83;;
12253;SDS011;6189;52.526;13.390;2022-09-27T02:27:59;4.27;;;2.13;;
12253;SDS011;6189;52.526;13.390;2022-09-27T02:30:50;3.67;;;1.80;;
12253;SDS011;6189;52.526;13.390;2022-09-27T02:33:37;3.30;;;1.87;;
12253;SDS011;6189;52.526;13.390;2022-09-27T02:36:28;2.60;;;1.77;;
12253;SDS011;6189;52.526;13.390;2022-09-27T02:39:16;1.80;;;1.60;;
12253;SDS011;6189;52.526;13.390;2022-09-27T02:42:02;3.07;;;2.27;;
12253;SDS011;6189;52.526;13.390;2022-09-27T02:44:49;2.17;;;1.83;;
12253;SDS011;6189;52.526;13.390;2022-09-27T02:47:37;3.30;;;1.90;;
12253;SDS011;6189;52.526;13.390;2022-09-27T02:54:03;2.07;;;1.80;;
12253;SDS011;6189;52.526;13.390;2022-09-27T02:57:05;3.17;;;1.90;;
12253;SDS011;6189;52.526;13.390;2022-09-27T03:00:03;3.47;;;1.70;;
12253;SDS011;6189;52.526;13.390;2022-09-27T03:02:52;2.80;;;1.80;;
12253;SDS011;6189;52.526;13.390;2022-09-27T03:05:44;2.47;;;1.80;;
12253;SDS011;6189;52.526;13.390;2022-09-27T03:08:33;2.20;;;2.00;;
12253;SDS011;6189;52.526;13.390;2022-09-27T03:11:18;3.77;;;2.17;;
12253;SDS011;6189;52.526;13.390;2022-09-27T03:14:05;2.60;;;1.90;;
12253;SDS011;6189;52.526;13.390;2022-09-27T03:16:52;3.37;;;1.70;;
12253;SDS011;6189;52.526;13.390;2022-09-27T03:19:37;3.57;;;1.90;;
12253;SDS011;6189;52.526;13.390;2022-09-27T03:22:23;3.10;;;1.90;;
12253;SDS011;6189;52.526;13.390;2022-09-27T03:25:10;2.80;;;1.90;;
12253;SDS011;6189;52.526;13.390;2022-09-27T03:27:55;2.87;;;1.73;;
12253;SDS011;6189;52.526;13.390;2022-09-27T03:30:43;7.03;;;2.10;;
12253;SDS011;6189;52.526;13.390;2022-09-27T03:33:29;3.30;;;1.90;;
12253;SDS011;6189;52.526;13.390;2022-09-27T03:36:16;2.50;;;1.90;;
12253;SDS011;6189;52.526;13.390;2022-09-27T03:39:01;3.67;;;2.30;;
12253;SDS011;6189;52.526;13.390;2022-09-27T03:41:46;2.23;;;2.03;;
12253;SDS011;6189;52.526;13.390;2022-09-27T03:44:32;2.50;;;2.03;;
12253;SDS011;6189;52.526;13.390;2022-09-27T03:47:18;3.73;;;2.27;;
12253;SDS011;6189;52.526;13.390;2022-09-27T03:50:05;4.17;;;2.20;;
12253;SDS011;6189;52.526;13.390;2022-09-27T03:52:52;4.00;;;2.53;;
12253;SDS011;6189;52.526;13.390;2022-09-27T03:55:38;3.87;;;2.50;;
12253;SDS011;6189;52.526;13.390;2022-09-27T03:58:23;3.00;;;2.50;;
12253;SDS011;6189;52.526;13.390;2022-09-27T04:01:09;4.13;;;2.30;;
12253;SDS011;6189;52.526;13.390;2022-09-27T04:03:56;2.90;;;2.20;;
12253;SDS011;6189;52.526;13.390;2022-09-27T04:06:42;3.10;;;2.23;;
12253;SDS011;6189;52.526;13.390;2022-09-27T04:09:27;4.00;;;2.23;;
12253;SDS011;6189;52.526;13.390;2022-09-27T04:12:13;4.10;;;2.60;;
12253;SDS011;6189;52.526;13.390;2022-09-27T04:14:59;2.87;;;2.20;;
12253;SDS011;6189;52.526;13.390;2022-09-27T04:17:45;3.27;;;2.63;;
12253;SDS011;6189;52.526;13.390;2022-09-27T04:20:32;2.60;;;2.17;;
12253;SDS011;6189;52.526;13.390;2022-09-27T04:23:18;3.70;;;2.30;;
12253;SDS011;6189;52.526;13.390;2022-09-27T04:26:04;3.37;;;2.77;;
12253;SDS011;6189;52.526;13.390;2022-09-27T04:28:49;4.03;;;2.60;;
12253;SDS011;6189;52.526;13.390;2022-09-27T04:31:35;3.23;;;2.27;;
12253;SDS011;6189;52.526;13.390;2022-09-27T04:34:21;3.33;;;2.37;;
12253;SDS011;6189;52.526;13.390;2022-09-27T04:37:28;3.93;;;2.30;;
12253;SDS011;6189;52.526;13.390;2022-09-27T04:40:13;2.50;;;2.20;;
12253;SDS011;6189;52.526;13.390;2022-09-27T04:43:00;3.37;;;2.47;;
12253;SDS011;6189;52.526;13.390;2022-09-27T04:45:46;3.33;;;2.60;;
12253;SDS011;6189;52.526;13.390;2022-09-27T04:48:31;4.53;;;2.90;;
12253;SDS011;6189;52.526;13.390;2022-09-27T04:51:17;3.70;;;2.33;;
12253;SDS011;6189;52.526;13.390;2022-09-27T04:54:04;4.47;;;2.63;;
12253;SDS011;6189;52.526;13.390;2022-09-27T04:56:50;2.90;;;2.50;;
12253;SDS011;6189;52.526;13.390;2022-09-27T04:59:35;2.90;;;2.00;;
12253;SDS011;6189;52.526;13.390;2022-09-27T05:02:20;3.70;;;2.40;;
12253;SDS011;6189;52.526;13.390;2022-09-27T05:05:06;4.70;;;2.40;;
12253;SDS011;6189;52.526;13.390;2022-09-27T05:07:52;3.97;;;2.80;;
12253;SDS011;6189;52.526;13.390;2022-09-27T05:10:39;4.13;;;2.47;;
12253;SDS011;6189;52.526;13.390;2022-09-27T05:13:25;3.77;;;2.43;;
12253;SDS011;6189;52.526;13.390;2022-09-27T05:16:10;5.50;;;2.63;;
12253;SDS011;6189;52.526;13.390;2022-09-27T05:18:56;3.20;;;2.50;;
12253;SDS011;6189;52.526;13.390;2022-09-27T05:21:42;4.97;;;2.43;;
12253;SDS011;6189;52.526;13.390;2022-09-27T05:24:27;2.70;;;2.50;;
12253;SDS011;6189;52.526;13.390;2022-09-27T05:27:15;3.37;;;3.03;;
12253;SDS011;6189;52.526;13.390;2022-09-27T05:30:03;4.83;;;2.53;;
12253;SDS011;6189;52.526;13.390;2022-09-27T05:32:50;2.53;;;2.27;;
12253;SDS011;6189;52.526;13.390;2022-09-27T05:35:36;5.73;;;2.90;;
12253;SDS011;6189;52.526;13.390;2022-09-27T05:38:23;3.53;;;3.03;;
12253;SDS011;6189;52.526;13.390;2022-09-27T05:41:09;4.20;;;2.73;;
12253;SDS011;6189;52.526;13.390;2022-09-27T05:43:56;4.17;;;3.03;;
12253;SDS011;6189;52.526;13.390;2022-09-27T05:46:41;3.93;;;2.63;;
12253;SDS011;6189;52.526;13.390;2022-09-27T05:49:29;6.33;;;2.90;;
12253;SDS011;6189;52.526;13.390;2022-09-27T05:52:14;6.17;;;2.97;;
12253;SDS011;6189;52.526;13.390;2022-09-27T05:55:00;4.47;;;2.50;;
12253;SDS011;6189;52.526;13.390;2022-09-27T05:57:55;2.77;;;2.43;;
12253;SDS011;6189;52.526;13.390;2022-09-27T06:00:44;4.27;;;2.60;;
12253;SDS011;6189;52.526;13.390;2022-09-27T06:03:29;3.73;;;3.07;;
12253;SDS011;6189;52.526;13.390;2022-09-27T06:06:15;3.50;;;2.87;;
12253;SDS011;6189;52.526;13.390;2022-09-27T06:09:00;6.00;;;2.70;;
12253;SDS011;6189;52.526;13.390;2022-09-27T06:11:46;4.03;;;2.70;;
12253;SDS011;6189;52.526;13.390;2022-09-27T06:14:31;2.90;;;2.60;;
12253;SDS011;6189;52.526;13.390;2022-09-27T06:17:19;5.27;;;2.70;;
12253;SDS011;6189;52.526;13.390;2022-09-27T06:20:04;5.27;;;2.70;;
12253;SDS011;6189;52.526;13.390;2022-09-27T06:22:51;3.40;;;2.93;;
12253;SDS011;6189;52.526;13.390;2022-09-27T06:25:37;5.80;;;2.80;;
12253;SDS011;6189;52.526;13.390;2022-09-27T06:28:24;5.13;;;2.90;;
12253;SDS011;6189;52.526;13.390;2022-09-27T06:31:09;5.83;;;3.07;;
12253;SDS011;6189;52.526;13.390;2022-09-27T06:33:57;5.93;;;2.80;;
12253;SDS011;6189;52.526;13.390;2022-09-27T06:36:43;18.10;;;3.80;;
12253;SDS011;6189;52.526;13.390;2022-09-27T06:39:29;5.30;;;2.90;;
12253;SDS011;6189;52.526;13.390;2022-09-27T06:42:16;6.93;;;2.77;;
12253;SDS011;6189;52.526;13.390;2022-09-27T06:45:02;6.47;;;3.10;;
12253;SDS011;6189;52.526;13.390;2022-09-27T06:47:49;3.70;;;3.17;;
12253;SDS011;6189;52.526;13.390;2022-09-27T06:50:36;8.87;;;3.43;;
12253;SDS011;6189;52.526;13.390;2022-09-27T06:53:24;6.33;;;3.37;;
12253;SDS011;6189;52.526;13.390;2022-09-27T06:56:11;6.30;;;2.90;;
12253;SDS011;6189;52.526;13.390;2022-09-27T06:58:57;5.13;;;3.03;;
12253;SDS011;6189;52.526;13.390;2022-09-27T07:02:00;6.50;;;3.20;;
12253;SDS011;6189;52.526;13.390;2022-09-27T07:04:45;6.30;;;3.13;;
12253;SDS011;6189;52.526;13.390;2022-09-27T07:07:32;9.40;;;3.43;;
12253;SDS011;6189;52.526;13.390;2022-09-27T07:10:18;6.47;;;3.50;;
12253;SDS011;6189;52.526;13.390;2022-09-27T07:13:03;4.63;;;3.10;;
12253;SDS011;6189;52.526;13.390;2022-09-27T07:15:50;8.23;;;3.33;;
12253;SDS011;6189;52.526;13.390;2022-09-27T07:18:35;9.33;;;3.30;;
12253;SDS011;6189;52.526;13.390;2022-09-27T07:21:21;5.63;;;2.87;;
12253;SDS011;6189;52.526;13.390;2022-09-27T07:24:08;4.40;;;3.20;;
12253;SDS011;6189;52.526;13.390;2022-09-27T07:26:53;6.20;;;3.13;;
12253;SDS011;6189;52.526;13.390;2022-09-27T07:29:38;5.60;;;3.50;;
12253;SDS011;6189;52.526;13.390;2022-09-27T07:32:24;3.83;;;3.37;;
12253;SDS011;6189;52.526;13.390;2022-09-27T07:35:10;6.60;;;3.13;;
12253;SDS011;6189;52.526;13.390;2022-09-27T07:37:58;5.23;;;3.13;;
12253;SDS011;6189;52.526;13.390;2022-09-27T07:40:44;4.40;;;3.13;;
12253;SDS011;6189;52.526;13.390;2022-09-27T07:43:30;6.83;;;3.00;;
12253;SDS011;6189;52.526;13.390;2022-09-27T07:46:16;4.13;;;2.67;;
12253;SDS011;6189;52.526;13.390;2022-09-27T07:49:01;4.57;;;3.43;;
12253;SDS011;6189;52.526;13.390;2022-09-27T07:51:47;5.20;;;3.27;;
12253;SDS011;6189;52.526;13.390;2022-09-27T07:54:32;5.50;;;3.40;;
12253;SDS011;6189;52.526;13.390;2022-09-27T07:57:21;3.93;;;2.80;;
12253;SDS011;6189;52.526;13.390;2022-09-27T08:00:08;5.90;;;3.00;;
12253;SDS011;6189;52.526;13.390;2022-09-27T08:02:55;7.20;;;3.03;;
12253;SDS011;6189;52.526;13.390;2022-09-27T08:05:40;5.20;;;2.93;;
12253;SDS011;6189;52.526;13.390;2022-09-27T08:08:27;5.97;;;2.90;;
12253;SDS011;6189;52.526;13.390;2022-09-27T08:11:13;5.53;;;3.30;;
12253;SDS011;6189;52.526;13.390;2022-09-27T08:14:01;6.10;;;3.00;;
12253;SDS011;6189;52.526;13.390;2022-09-27T08:16:47;5.80;;;2.90;;
12253;SDS011;6189;52.526;13.390;2022-09-27T08:19:33;6.87;;;3.20;;
12253;SDS011;6189;52.526;13.390;2022-09-27T08:22:19;3.23;;;2.80;;
12253;SDS011;6189;52.526;13.390;2022-09-27T08:25:05;5.30;;;3.03;;
12253;SDS011;6189;52.526;13.390;2022-09-27T08:27:53;6.90;;;3.00;;
12253;SDS011;6189;52.526;13.390;2022-09-27T08:30:41;4.07;;;3.47;;
12253;SDS011;6189;52.526;13.390;2022-09-27T08:33:27;4.77;;;3.30;;
12253;SDS011;6189;52.526;13.390;2022-09-27T08:36:12;4.47;;;3.17;;
12253;SDS011;6189;52.526;13.390;2022-09-27T08:38:58;3.33;;;3.03;;
12253;SDS011;6189;52.526;13.390;2022-09-27T08:41:44;5.57;;;3.10;;
12253;SDS011;6189;52.526;13.390;2022-09-27T08:44:36;6.63;;;3.10;;
12253;SDS011;6189;52.526;13.390;2022-09-27T08:47:28;4.27;;;3.30;;
12253;SDS011;6189;52.526;13.390;2022-09-27T08:50:21;6.37;;;3.20;;
12253;SDS011;6189;52.526;13.390;2022-09-27T08:53:14;3.90;;;3.20;;
12253;SDS011;6189;52.526;13.390;2022-09-27T08:56:05;6.53;;;3.10;;
12253;SDS011;6189;52.526;13.390;2022-09-27T08:58:54;4.70;;;3.07;;
12253;SDS011;6189;52.526;13.390;2022-09-27T09:01:46;3.40;;;3.10;;
12253;SDS011;6189;52.526;13.390;2022-09-27T09:04:34;5.00;;;2.80;;
12253;SDS011;6189;52.526;13.390;2022-09-27T09:07:25;2.97;;;2.67;;
12253;SDS011;6189;52.526;13.390;2022-09-27T09:10:25;3.33;;;2.47;;
12253;SDS011;6189;52.526;13.390;2022-09-27T09:13:42;4.00;;;2.40;;
12253;SDS011;6189;52.526;13.390;2022-09-27T09:16:52;3.93;;;2.83;;
12253;SDS011;6189;52.526;13.390;2022-09-27T09:19:50;4.60;;;3.13;;
12253;SDS011;6189;52.526;13.390;2022-09-27T09:22:51;3.33;;;3.03;;
12253;SDS011;6189;52.526;13.390;2022-09-27T09:25:50;5.40;;;3.17;;
12253;SDS011;6189;52.526;13.390;2022-09-27T09:28:45;6.23;;;2.90;;
12253;SDS011;6189;52.526;13.390;2022-09-27T09:31:40;3.50;;;3.20;;
12253;SDS011;6189;52.526;13.390;2022-09-27T09:34:30;10.50;;;3.20;;
12253;SDS011;6189;52.526;13.390;2022-09-27T09:37:20;3.40;;;3.10;;
12253;SDS011;6189;52.526;13.390;2022-09-27T09:40:13;4.47;;;2.87;;
12253;SDS011;6189;52.526;13.390;2022-09-27T09:43:07;4.03;;;2.70;;
12253;SDS011;6189;52.526;13.390;2022-09-27T09:45:59;4.77;;;3.00;;
12253;SDS011;6189;52.526;13.390;2022-09-27T09:48:50;3.67;;;2.70;;
12253;SDS011;6189;52.526;13.390;2022-09-27T09:51:41;6.00;;;3.10;;
12253;SDS011;6189;52.526;13.390;2022-09-27T09:54:33;5.03;;;3.20;;
12253;SDS011;6189;52.526;13.390;2022-09-27T09:57:24;4.10;;;2.70;;
12253;SDS011;6189;52.526;13.390;2022-09-27T10:00:17;3.87;;;3.03;;
12253;SDS011;6189;52.526;13.390;2022-09-27T10:03:03;4.40;;;3.00;;
12253;SDS011;6189;52.526;13.390;2022-09-27T10:05:49;4.93;;;3.00;;
12253;SDS011;6189;52.526;13.390;2022-09-27T10:08:34;8.33;;;3.10;;
12253;SDS011;6189;52.526;13.390;2022-09-27T10:11:23;6.77;;;3.23;;
12253;SDS011;6189;52.526;13.390;2022-09-27T10:14:11;6.60;;;3.13;;
12253;SDS011;6189;52.526;13.390;2022-09-27T10:16:58;6.47;;;3.77;;
12253;SDS011;6189;52.526;13.390;2022-09-27T10:19:47;4.00;;;3.60;;
12253;SDS011;6189;52.526;13.390;2022-09-27T10:22:36;8.20;;;3.33;;
12253;SDS011;6189;52.526;13.390;2022-09-27T10:25:23;4.63;;;3.50;;
12253;SDS011;6189;52.526;13.390;2022-09-27T10:28:13;5.97;;;3.33;;
12253;SDS011;6189;52.526;13.390;2022-09-27T10:31:15;5.10;;;3.30;;
12253;SDS011;6189;52.526;13.390;2022-09-27T10:34:02;7.23;;;3.33;;
12253;SDS011;6189;52.526;13.390;2022-09-27T10:37:00;5.73;;;3.40;;
12253;SDS011;6189;52.526;13.390;2022-09-27T10:39:48;6.50;;;3.30;;
12253;SDS011;6189;52.526;13.390;2022-09-27T10:42:35;3.40;;;3.10;;
12253;SDS011;6189;52.526;13.390;2022-09-27T10:45:30;4.63;;;3.43;;
12253;SDS011;6189;52.526;13.390;2022-09-27T10:48:18;5.07;;;3.30;;
12253;SDS011;6189;52.526;13.390;2022-09-27T10:51:06;3.80;;;3.10;;
12253;SDS011;6189;52.526;13.390;2022-09-27T10:54:15;4.80;;;2.83;;
12253;SDS011;6189;52.526;13.390;2022-09-27T10:57:04;4.17;;;3.00;;
12253;SDS011;6189;52.526;13.390;2022-09-27T10:59:59;4.13;;;3.23;;
12253;SDS011;6189;52.526;13.390;2022-09-27T11:02:51;7.77;;;3.60;;
12253;SDS011;6189;52.526;13.390;2022-09-27T11:05:40;3.87;;;3.23;;
12253;SDS011;6189;52.526;13.390;2022-09-27T11:08:30;7.67;;;4.10;;
12253;SDS011;6189;52.526;13.390;2022-09-27T11:11:19;4.97;;;3.30;;
12253;SDS011;6189;52.526;13.390;2022-09-27T11:14:15;7.17;;;3.80;;
12253;SDS011;6189;52.526;13.390;2022-09-27T11:17:06;4.33;;;3.40;;
12253;SDS011;6189;52.526;13.390;2022-09-27T11:23:22;5.20;;;2.97;;
12253;SDS011;6189;52.526;13.390;2022-09-27T11:26:21;3.90;;;3.27;;
12253;SDS011;6189;52.526;13.390;2022-09-27T11:29:20;4.47;;;3.20;;
12253;SDS011;6189;52.526;13.390;2022-09-27T11:32:12;4.50;;;3.20;;
12253;SDS011;6189;52.526;13.390;2022-09-27T11:35:19;6.77;;;3.40;;
12253;SDS011;6189;52.526;13.390;2022-09-27T11:38:16;6.17;;;3.10;;
12253;SDS011;6189;52.526;13.390;2022-09-27T11:41:13;7.40;;;3.70;;
12253;SDS011;6189;52.526;13.390;2022-09-27T11:44:15;4.60;;;3.30;;
12253;SDS011;6189;52.526;13.390;2022-09-27T11:47:29;4.60;;;3.70;;
12253;SDS011;6189;52.526;13.390;2022-09-27T11:50:36;8.70;;;3.60;;
12253;SDS011;6189;52.526;13.390;2022-09-27T11:53:44;3.10;;;1.53;;
12253;SDS011;6189;52.526;13.390;2022-09-27T11:56:41;3.97;;;1.43;;
12253;SDS011;6189;52.526;13.390;2022-09-27T11:59:41;1.70;;;1.40;;
12253;SDS011;6189;52.526;13.390;2022-09-27T12:06:24;2.80;;;1.50;;
12253;SDS011;6189;52.526;13.390;2022-09-27T12:09:18;4.40;;;1.67;;
12253;SDS011;6189;52.526;13.390;2022-09-27T12:12:09;2.43;;;1.60;;
12253;SDS011;6189;52.526;13.390;2022-09-27T12:14:59;2.20;;;1.40;;
12253;SDS011;6189;52.526;13.390;2022-09-27T12:17:47;3.77;;;1.50;;
12253;SDS011;6189;52.526;13.390;2022-09-27T12:20:36;2.07;;;1.60;;
12253;SDS011;6189;52.526;13.390;2022-09-27T12:23:27;2.37;;;1.90;;
12253;SDS011;6189;52.526;13.390;2022-09-27T12:26:18;5.13;;;1.97;;
12253;SDS011;6189;52.526;13.390;2022-09-27T12:29:09;2.63;;;2.30;;
12253;SDS011;6189;52.526;13.390;2022-09-27T12:32:01;5.17;;;2.47;;
12253;SDS011;6189;52.526;13.390;2022-09-27T12:34:53;2.67;;;2.17;;
12253;SDS011;6189;52.526;13.390;2022-09-27T12:37:44;2.83;;;2.30;;
12253;SDS011;6189;52.526;13.390;2022-09-27T12:40:35;2.57;;;1.93;;
12253;SDS011;6189;52.526;13.390;2022-09-27T12:43:24;4.57;;;2.63;;
12253;SDS011;6189;52.526;13.390;2022-09-27T12:46:12;4.50;;;2.97;;
12253;SDS011;6189;52.526;13.390;2022-09-27T12:49:07;6.30;;;2.93;;
12253;SDS011;6189;52.526;13.390;2022-09-27T12:51:58;3.40;;;3.00;;
12253;SDS011;6189;52.526;13.390;2022-09-27T12:55:01;4.53;;;2.83;;
12253;SDS011;6189;52.526;13.390;2022-09-27T13:01:35;5.87;;;2.80;;
12253;SDS011;6189;52.526;13.390;2022-09-27T13:04:34;4.50;;;2.37;;
12253;SDS011;6189;52.526;13.390;2022-09-27T13:07:45;3.50;;;2.20;;
12253;SDS011;6189;52.526;13.390;2022-09-27T13:10:39;1.93;;;1.73;;
12253;SDS011;6189;52.526;13.390;2022-09-27T13:13:32;2.00;;;1.63;;
12253;SDS011;6189;52.526;13.390;2022-09-27T13:16:21;2.60;;;2.03;;
12253;SDS011;6189;52.526;13.390;2022-09-27T13:19:20;2.97;;;2.10;;
12253;SDS011;6189;52.526;13.390;2022-09-27T13:22:35;3.17;;;2.30;;
12253;SDS011;6189;52.526;13.390;2022-09-27T13:28:32;2.53;;;2.30;;
12253;SDS011;6189;52.526;13.390;2022-09-27T13:31:59;2.87;;;2.10;;
12253;SDS011;6189;52.526;13.390;2022-09-27T13:34:51;3.03;;;1.80;;
12253;SDS011;6189;52.526;13.390;2022-09-27T13:37:45;3.07;;;2.30;;
12253;SDS011;6189;52.526;13.390;2022-09-27T13:40:34;4.03;;;2.43;;
12253;SDS011;6189;52.526;13.390;2022-09-27T13:43:25;4.83;;;3.43;;
12253;SDS011;6189;52.526;13.390;2022-09-27T13:46:20;5.13;;;3.30;;
12253;SDS011;6189;52.526;13.390;2022-09-27T13:49:12;3.43;;;2.80;;
12253;SDS011;6189;52.526;13.390;2022-09-27T13:52:04;3.03;;;2.73;;
12253;SDS011;6189;52.526;13.390;2022-09-27T13:55:05;3.80;;;2.53;;
12253;SDS011;6189;52.526;13.390;2022-09-27T13:58:14;3.47;;;2.30;;
12253;SDS011;6189;52.526;13.390;2022-09-27T14:01:25;3.47;;;2.10;;
12253;SDS011;6189;52.526;13.390;2022-09-27T14:04:16;4.40;;;2.00;;
12253;SDS011;6189;52.526;13.390;2022-09-27T14:07:06;2.30;;;2.10;;
12253;SDS011;6189;52.526;13.390;2022-09-27T14:09:56;3.10;;;2.30;;
12253;SDS011;6189;52.526;13.390;2022-09-27T14:12:43;2.87;;;2.40;;
12253;SDS011;6189;52.526;13.390;2022-09-27T14:15:29;2.47;;;2.27;;
12253;SDS011;6189;52.526;13.390;2022-09-27T14:18:15;4.10;;;2.57;;
12253;SDS011;6189;52.526;13.390;2022-09-27T14:21:09;2.90;;;2.63;;
12253;SDS011;6189;52.526;13.390;2022-09-27T14:24:22;2.80;;;2.60;;
12253;SDS011;6189;52.526;13.390;2022-09-27T14:27:11;4.13;;;2.20;;
12253;SDS011;6189;52.526;13.390;2022-09-27T14:30:05;2.77;;;2.37;;
12253;SDS011;6189;52.526;13.390;2022-09-27T14:32:58;3.47;;;3.03;;
12253;SDS011;6189;52.526;13.390;2022-09-27T14:35:44;3.80;;;2.13;;
12253;SDS011;6189;52.526;13.390;2022-09-27T14:39:11;2.87;;;2.60;;
12253;SDS011;6189;52.526;13.390;2022-09-27T14:41:59;2.80;;;2.40;;
12253;SDS011;6189;52.526;13.390;2022-09-27T14:44:45;4.57;;;2.10;;
12253;SDS011;6189;52.526;13.390;2022-09-27T14:47:31;2.40;;;2.20;;
12253;SDS011;6189;52.526;13.390;2022-09-27T14:50:19;3.03;;;2.73;;
12253;SDS011;6189;52.526;13.390;2022-09-27T14:53:18;2.30;;;2.10;;
12253;SDS011;6189;52.526;13.390;2022-09-27T14:56:08;4.33;;;2.60;;
12253;SDS011;6189;52.526;13.390;2022-09-27T14:59:02;2.77;;;2.33;;
12253;SDS011;6189;52.526;13.390;2022-09-27T15:01:53;2.57;;;2.20;;
12253;SDS011;6189;52.526;13.390;2022-09-27T15:04:41;3.90;;;2.77;;
12253;SDS011;6189;52.526;13.390;2022-09-27T15:07:29;3.67;;;2.70;;
12253;SDS011;6189;52.526;13.390;2022-09-27T15:10:16;4.87;;;3.40;;
12253;SDS011;6189;52.526;13.390;2022-09-27T15:13:03;5.47;;;3.47;;
12253;SDS011;6189;52.526;13.390;2022-09-27T15:15:51;5.13;;;4.07;;
12253;SDS011;6189;52.526;13.390;2022-09-27T15:18:39;4.47;;;3.70;;
12253;SDS011;6189;52.526;13.390;2022-09-27T15:21:27;4.63;;;3.77;;
12253;SDS011;6189;52.526;13.390;2022-09-27T15:27:22;4.70;;;3.10;;
12253;SDS011;6189;52.526;13.390;2022-09-27T15:30:14;3.90;;;3.10;;
12253;SDS011;6189;52.526;13.390;2022-09-27T15:33:03;4.40;;;3.30;;
12253;SDS011;6189;52.526;13.390;2022-09-27T15:35:50;4.40;;;3.27;;
12253;SDS011;6189;52.526;13.390;2022-09-27T15:38:38;4.03;;;3.40;;
12253;SDS011;6189;52.526;13.390;2022-09-27T15:41:26;3.70;;;2.90;;
12253;SDS011;6189;52.526;13.390;2022-09-27T15:44:45;4.47;;;3.20;;
12253;SDS011;6189;52.526;13.390;2022-09-27T15:47:47;5.43;;;3.40;;
12253;SDS011;6189;52.526;13.390;2022-09-27T15:50:36;5.70;;;4.30;;
12253;SDS011;6189;52.526;13.390;2022-09-27T15:53:39;6.77;;;5.77;;
12253;SDS011;6189;52.526;13.390;2022-09-27T15:56:26;9.33;;;6.03;;
12253;SDS011;6189;52.526;13.390;2022-09-27T15:59:11;7.07;;;6.13;;
12253;SDS011;6189;52.526;13.390;2022-09-27T16:02:09;4.80;;;4.00;;
12253;SDS011;6189;52.526;13.390;2022-09-27T16:04:58;4.40;;;3.90;;
12253;SDS011;6189;52.526;13.390;2022-09-27T16:07:45;4.53;;;3.10;;
12253;SDS011;6189;52.526;13.390;2022-09-27T16:10:31;3.63;;;3.10;;
12253;SDS011;6189;52.526;13.390;2022-09-27T16:13:21;3.33;;;2.77;;
12253;SDS011;6189;52.526;13.390;2022-09-27T16:16:09;3.37;;;2.60;;
12253;SDS011;6189;52.526;13.390;2022-09-27T16:19:02;3.40;;;2.97;;
12253;SDS011;6189;52.526;13.390;2022-09-27T16:21:47;2.87;;;2.60;;
12253;SDS011;6189;52.526;13.390;2022-09-27T16:24:34;4.60;;;3.30;;
12253;SDS011;6189;52.526;13.390;2022-09-27T16:27:21;3.70;;;3.13;;
12253;SDS011;6189;52.526;13.390;2022-09-27T16:30:07;3.30;;;3.00;;
12253;SDS011;6189;52.526;13.390;2022-09-27T16:32:54;3.60;;;3.23;;
12253;SDS011;6189;52.526;13.390;2022-09-27T16:35:39;4.90;;;4.40;;
12253;SDS011;6189;52.526;13.390;2022-09-27T16:38:24;5.20;;;4.70;;
12253;SDS011;6189;52.526;13.390;2022-09-27T16:41:14;8.80;;;6.33;;
12253;SDS011;6189;52.526;13.390;2022-09-27T16:44:04;5.00;;;4.50;;
12253;SDS011;6189;52.526;13.390;2022-09-27T16:46:50;4.67;;;3.67;;
12253;SDS011;6189;52.526;13.390;2022-09-27T16:49:35;3.70;;;2.67;;
12253;SDS011;6189;52.526;13.390;2022-09-27T16:52:39;3.47;;;2.70;;
12253;SDS011;6189;52.526;13.390;2022-09-27T16:55:26;3.53;;;2.60;;
12253;SDS011;6189;52.526;13.390;2022-09-27T16:58:14;3.10;;;2.10;;
12253;SDS011;6189;52.526;13.390;2022-09-27T17:00:59;3.57;;;2.47;;
12253;SDS011;6189;52.526;13.390;2022-09-27T17:03:47;3.70;;;2.53;;
12253;SDS011;6189;52.526;13.390;2022-09-27T17:06:33;2.70;;;1.80;;
12253;SDS011;6189;52.526;13.390;2022-09-27T17:09:19;3.50;;;1.70;;
12253;SDS011;6189;52.526;13.390;2022-09-27T17:12:05;3.97;;;2.20;;
12253;SDS011;6189;52.526;13.390;2022-09-27T17:14:52;3.00;;;2.50;;
12253;SDS011;6189;52.526;13.390;2022-09-27T17:17:38;6.30;;;2.40;;
12253;SDS011;6189;52.526;13.390;2022-09-27T17:20:23;4.50;;;2.50;;
12253;SDS011;6189;52.526;13.390;2022-09-27T17:23:09;3.83;;;3.23;;
12253;SDS011;6189;52.526;13.390;2022-09-27T17:26:00;3.70;;;3.20;;
12253;SDS011;6189;52.526;13.390;2022-09-27T17:28:46;4.83;;;4.33;;
12253;SDS011;6189;52.526;13.390;2022-09-27T17:31:33;6.57;;;5.60;;
12253;SDS011;6189;52.526;13.390;2022-09-27T17:34:22;12.00;;;8.43;;